AirNav   Pilot Hours Calculator
 
 1466 users online  

9MO8 Owensville Ambulance District Heliport
Owensville, Missouri, USA

GOING TO OWENSVILLE?


FAA INFORMATION EFFECTIVE 28 FEBRUARY 2019

Location

FAA Identifier: 9MO8
Lat/Long: 38-21-13.9500N / 091-29-57.2400W
38-21.232500N / 091-29.954000W
38.3538750 / -91.4992333
(estimated)
Elevation: 900 ft. / 274 m (estimated)
Variation: 03E (1985)
Time zone: UTC -6 (UTC -5 during Daylight Saving Time)
Zip code: 65066

Heliport Operations

Heliport use: Private use, MEDICAL USE.
Activation date: 06/1991
Control tower: no
ARTCC: KANSAS CITY CENTER
FSS: COLUMBIA FLIGHT SERVICE STATION
Attendance: UNATNDD
Wind indicator: yes
Segmented circle: no
Lights: FOR PERIMETER LGTS CALL 314-437-4353.

Heliport Communications

WX AWOS-3 at UUV (17 nm SE): 119.375 (573-860-2596)
WX ASOS at VIH (19 nm SW): 119.025 (573-299-4419)

Nearby radio navigation aids

VOR radial/distance  VOR name  Freq  Var
VIHr033/15.5VICHY VOR/DME117.7006E
FTZr226/32.1FORISTELL VORTAC110.8005E

Heliport Services

Runway Information

Helipad H1

Dimensions: 50 x 50 ft. / 15 x 15 m
Surface: concrete
Runway edge lights: PERI
Latitude: 38-21.232500N
Longitude: 091-29.954000W
Elevation: 900.0 ft.
Traffic pattern: leftleft

Heliport Ownership and Management from official FAA records

Ownership: Privately-owned
Owner: OWENSVILLE AREA AMBULANCE DIS
P O BOX 139
OWENSVILLE, MO 65066
Phone 314-437-4353
Manager: KAREN HUBENTHAL
P O BOX 139
OWENSVILLE, MO 65066
Phone 314-437-4353

Additional Remarks

OWNER DESIRES ARPT NOT BE CHARTED.

Instrument Procedures

There are no published instrument procedures at 9MO8.

Some nearby airports with instrument procedures:

KUUV - Sullivan Regional Airport (17 nm SE)
KUBX - Cuba Municipal Airport (17 nm S)
KVIH - Rolla National Airport (19 nm SW)
KFYG - Washington Regional Airport (28 nm NE)
KJEF - Jefferson City Memorial Airport (34 nm NW)
 
Loc | Ops | Rwys | IFR | FBO | Links
Com | Nav | Svcs | Stats | Notes

Kansas City Aviation Department
 
Area around 9MO8 (Owensville Ambulance District Heliport)
 
Road maps at: MapQuest Bing Google
 
Aerial photo
No photo
 
Sectional chart

 
Airport distance calculator
Flying to Owensville Ambulance District Heliport? Find the distance to fly.

From to 9MO8

Sunrise and sunset
Times for 25-Mar-2019
 Local
(UTC-5)
 Zulu
(UTC)
Morning civil twilight06:3611:36
Sunrise07:0312:03
Sunset19:2100:21
Evening civil twilight19:4800:48

Current date and time
Zulu (UTC)  25-Mar-2019 15:25:20
Local (UTC-5)  25-Mar-2019 10:25:20
 
METAR
KVIH 
18nm SW 
251503Z AUTO 01011KT 5SM BR OVC005 07/06 A3015 RMK AO2 CIG 004V010 T00720056
KFYG 
28nm NE 
251455Z AUTO 35008G15KT 7SM OVC013 07/06 A3016 RMK AO2
KJEF 
34nm NW 
251453Z 36010KT 10SM OVC010 08/06 A3020 RMK AO2 CIG 007V012 SLP216 T00830061 51020
TAF
KCOU 
44nm NW 
251427Z 2514/2612 02010G18KT P6SM OVC008 TEMPO 2514/2516 4SM BR OVC004 FM251800 02010KT P6SM OVC015 FM252000 02010KT P6SM SCT027 FM260100 02006KT P6SM SCT035 FM260700 03005KT P6SM SCT250
KSUS 
44nm NE 
251133Z 2512/2612 01010G19KT P6SM OVC007 TEMPO 2512/2514 4SM -DZ BR OVC005 FM251600 01011G19KT P6SM OVC016 FM251900 01010G16KT P6SM BKN025 FM252200 02006KT P6SM SCT035
NOTAMs
Click for the latest NOTAMs
NOTAMs are issued by the DoD/FAA and will open in a separate window not controlled by AirNav.

 

 
 

Would you like to see your business listed on this page?

 If your business provides an interesting product or service to pilots, flight crews, aircraft, or users of the Owensville Ambulance District Heliport, you should consider listing it here.  To start the listing process, click on the button below
 
Add a business
 

Other Pages about Owensville Ambulance District Heliport

Update a link
 
Copyright © AirNav, LLC. All rights reserved. Privacy Policy  Contact